createdAt,value
2022-12-09T00:01:16.237Z,1.70
2022-12-09T00:03:44.512Z,1.60
2022-12-09T00:06:18.047Z,1.60
2022-12-09T00:08:45.876Z,1.50
2022-12-09T00:11:12.865Z,1.40
2022-12-09T00:13:40.702Z,1.30
2022-12-09T00:16:12.863Z,1.20
2022-12-09T00:18:40.813Z,1.10
2022-12-09T00:21:22.297Z,1.10
2022-12-09T00:23:50.816Z,1.00
2022-12-09T00:26:18.438Z,0.90
2022-12-09T00:28:46.214Z,0.80
2022-12-09T00:31:18.318Z,0.90
2022-12-09T00:33:46.467Z,0.90
2022-12-09T00:36:16.179Z,0.90
2022-12-09T00:38:44.167Z,1.00
2022-12-09T00:41:12.141Z,1.00
2022-12-09T00:43:40.230Z,1.00
2022-12-09T00:46:07.175Z,1.10
2022-12-09T00:48:35.035Z,1.10
2022-12-09T00:51:02.735Z,1.10
2022-12-09T00:53:30.259Z,1.20
2022-12-09T00:55:57.743Z,1.20
2022-12-09T00:58:25.187Z,1.20
2022-12-09T01:00:55.787Z,1.30
2022-12-09T01:03:24.264Z,1.20
2022-12-09T01:05:51.033Z,1.30
2022-12-09T01:08:18.649Z,1.20
2022-12-09T01:10:46.036Z,1.30
2022-12-09T01:13:14.909Z,1.30
2022-12-09T01:15:41.998Z,1.30
2022-12-09T01:18:11.632Z,1.20
2022-12-09T01:20:38.454Z,1.20
2022-12-09T01:23:05.836Z,1.30
2022-12-09T01:25:32.835Z,1.20
2022-12-09T01:28:00.423Z,1.30
2022-12-09T01:30:27.196Z,1.30
2022-12-09T01:32:54.572Z,1.30
2022-12-09T01:35:21.756Z,1.30
2022-12-09T01:37:49.596Z,1.30
2022-12-09T01:40:17.721Z,1.40
2022-12-09T01:42:45.888Z,1.40
2022-12-09T01:45:22.104Z,1.40
2022-12-09T01:47:58.207Z,1.40
2022-12-09T01:50:27.238Z,1.40
2022-12-09T01:52:55.865Z,1.40
2022-12-09T01:55:24.781Z,1.40
2022-12-09T01:57:53.161Z,1.40
2022-12-09T02:00:21.515Z,1.30
2022-12-09T02:02:52.424Z,1.30
2022-12-09T02:05:22.107Z,1.30
2022-12-09T02:07:55.172Z,1.30
2022-12-09T02:10:22.607Z,1.30
2022-12-09T02:13:25.733Z,1.30
2022-12-09T02:15:58.914Z,1.30
2022-12-09T02:19:03.774Z,1.30
2022-12-09T02:21:56.988Z,1.30
2022-12-09T02:24:43.440Z,1.30
2022-12-09T02:27:20.053Z,1.30
2022-12-09T02:30:15.446Z,1.30
2022-12-09T02:32:58.527Z,1.30
2022-12-09T02:35:35.344Z,1.30
2022-12-09T02:38:08.544Z,1.30
2022-12-09T02:40:55.206Z,1.30
2022-12-09T02:43:27.444Z,1.30
2022-12-09T02:45:57.499Z,1.20
2022-12-09T02:48:32.385Z,1.20
2022-12-09T02:51:05.624Z,1.30
2022-12-09T02:53:35.337Z,1.20
2022-12-09T02:56:06.447Z,1.20
2022-12-09T02:58:34.803Z,1.20
2022-12-09T03:01:02.087Z,1.20
2022-12-09T03:03:33.982Z,1.20
2022-12-09T03:06:09.545Z,1.20
2022-12-09T03:08:58.985Z,1.20
2022-12-09T03:11:26.600Z,1.30
2022-12-09T03:14:10.467Z,1.20
2022-12-09T03:16:53.704Z,1.20
2022-12-09T03:19:29.167Z,1.30
2022-12-09T03:22:04.892Z,1.30
2022-12-09T03:24:39.574Z,1.30
2022-12-09T03:27:11.055Z,1.30
2022-12-09T03:29:42.882Z,1.30
2022-12-09T03:32:11.825Z,1.30
2022-12-09T03:34:42.598Z,1.30
2022-12-09T03:37:12.157Z,1.30
2022-12-09T03:39:40.098Z,1.30
2022-12-09T03:42:15.280Z,1.30
2022-12-09T03:44:49.339Z,1.30
2022-12-09T03:47:16.509Z,1.30
2022-12-09T03:49:43.567Z,1.30
2022-12-09T03:52:18.957Z,1.30
2022-12-09T03:54:50.238Z,1.30
2022-12-09T03:57:20.141Z,1.30
2022-12-09T03:59:56.157Z,1.30
2022-12-09T04:02:23.625Z,1.30
2022-12-09T04:04:51.799Z,1.30
2022-12-09T04:07:18.874Z,1.30
2022-12-09T04:09:46.360Z,1.30
2022-12-09T04:12:13.442Z,1.30
2022-12-09T04:14:41.012Z,1.40
2022-12-09T04:17:07.840Z,1.40
2022-12-09T04:19:35.899Z,1.40
2022-12-09T04:22:02.540Z,1.40
2022-12-09T04:24:30.050Z,1.40
2022-12-09T04:26:56.635Z,1.40
2022-12-09T04:29:24.401Z,1.40
2022-12-09T04:31:51.175Z,1.40
2022-12-09T04:34:18.657Z,1.40
2022-12-09T04:36:45.576Z,1.40
2022-12-09T04:39:12.879Z,1.40
2022-12-09T04:41:39.742Z,1.40
2022-12-09T04:44:07.184Z,1.40
2022-12-09T04:46:34.151Z,1.40
2022-12-09T04:49:01.840Z,1.40
2022-12-09T04:51:31.326Z,1.40
2022-12-09T04:54:03.141Z,1.40
2022-12-09T04:56:30.181Z,1.40
2022-12-09T04:58:57.458Z,1.40
2022-12-09T05:01:30.287Z,1.40
2022-12-09T05:03:59.541Z,1.40
2022-12-09T05:06:26.869Z,1.40
2022-12-09T05:08:55.654Z,1.40
2022-12-09T05:11:24.094Z,1.40
2022-12-09T05:13:55.932Z,1.40
2022-12-09T05:16:23.305Z,1.40
2022-12-09T05:18:50.907Z,1.40
2022-12-09T05:21:20.111Z,1.40
2022-12-09T05:23:48.648Z,1.40
2022-12-09T05:26:19.218Z,1.40
2022-12-09T05:28:47.028Z,1.40
2022-12-09T05:31:17.167Z,1.40
2022-12-09T05:33:44.969Z,1.40
2022-12-09T05:36:14.471Z,1.40
2022-12-09T05:38:42.414Z,1.40
2022-12-09T05:41:10.304Z,1.40
2022-12-09T05:43:38.469Z,1.40
2022-12-09T05:46:06.696Z,1.40
2022-12-09T05:48:35.376Z,1.40
2022-12-09T05:51:08.603Z,1.40
2022-12-09T05:53:36.737Z,1.40
2022-12-09T05:56:03.962Z,1.40
2022-12-09T05:58:31.517Z,1.40
2022-12-09T06:01:05.528Z,1.40
2022-12-09T06:03:33.978Z,1.40
2022-12-09T06:06:08.709Z,1.40
2022-12-09T06:08:37.849Z,1.40
2022-12-09T06:11:05.779Z,1.40
2022-12-09T06:13:33.481Z,1.40
2022-12-09T06:16:07.722Z,1.40
2022-12-09T06:18:35.397Z,1.40
2022-12-09T06:21:10.728Z,1.40
2022-12-09T06:23:41.624Z,1.40
2022-12-09T06:26:17.189Z,1.40
2022-12-09T06:28:44.721Z,1.40
2022-12-09T06:31:12.417Z,1.40
2022-12-09T06:33:57.636Z,1.40
2022-12-09T06:36:31.073Z,1.40
2022-12-09T06:39:04.505Z,1.40
2022-12-09T06:41:35.201Z,1.40
2022-12-09T06:44:02.792Z,1.40
2022-12-09T06:46:29.745Z,1.40
2022-12-09T06:48:57.631Z,1.40
2022-12-09T06:51:25.618Z,1.40
2022-12-09T06:53:54.297Z,1.40
2022-12-09T06:56:21.626Z,1.40
2022-12-09T06:58:49.845Z,1.40
2022-12-09T07:01:23.767Z,1.40
2022-12-09T07:03:57.141Z,1.40
2022-12-09T07:06:32.018Z,1.40
2022-12-09T07:09:02.186Z,1.40
2022-12-09T07:11:29.499Z,1.40
2022-12-09T07:13:57.001Z,1.50
2022-12-09T07:16:24.733Z,1.50
2022-12-09T07:18:52.806Z,1.50
2022-12-09T07:21:21.512Z,1.50
2022-12-09T07:23:49.199Z,1.50
2022-12-09T07:26:16.983Z,1.50
2022-12-09T07:28:47.454Z,1.50
2022-12-09T07:31:23.447Z,1.50
2022-12-09T07:33:52.506Z,1.60
2022-12-09T07:36:21.769Z,1.60
2022-12-09T07:38:58.122Z,1.60
2022-12-09T07:41:26.037Z,1.60
2022-12-09T07:43:53.706Z,1.60
2022-12-09T07:46:22.550Z,1.60
2022-12-09T07:48:50.349Z,1.60
2022-12-09T07:51:17.774Z,1.60
2022-12-09T07:53:46.061Z,1.60
2022-12-09T07:56:14.922Z,1.60
2022-12-09T07:58:43.923Z,1.70
2022-12-09T08:01:19.600Z,1.60
2022-12-09T08:03:48.649Z,1.70
2022-12-09T08:06:21.471Z,1.70
2022-12-09T08:08:49.524Z,1.70
2022-12-09T08:11:22.797Z,1.70
2022-12-09T08:13:51.184Z,1.70
2022-12-09T08:16:21.565Z,1.70
2022-12-09T08:18:49.753Z,1.70
2022-12-09T08:21:21.557Z,1.70
2022-12-09T08:23:49.579Z,1.70
2022-12-09T08:26:20.097Z,1.70
2022-12-09T08:28:48.696Z,1.80
2022-12-09T08:31:22.364Z,1.70
2022-12-09T08:33:50.670Z,1.80
2022-12-09T08:36:22.404Z,1.80
2022-12-09T08:38:49.585Z,1.80
2022-12-09T08:41:39.085Z,1.80
2022-12-09T08:44:18.758Z,1.80
2022-12-09T08:46:48.822Z,1.90
2022-12-09T08:49:18.764Z,1.90
2022-12-09T08:51:48.436Z,1.90
2022-12-09T08:54:15.270Z,2.00
2022-12-09T08:56:47.643Z,2.00
2022-12-09T08:59:15.407Z,2.00
2022-12-09T09:01:42.496Z,2.10
2022-12-09T09:04:12.606Z,2.10
2022-12-09T09:06:42.472Z,2.00
2022-12-09T09:09:11.781Z,2.00
2022-12-09T09:11:40.400Z,2.00
2022-12-09T09:14:09.496Z,2.00
2022-12-09T09:16:40.123Z,2.10
2022-12-09T09:19:08.769Z,2.20
2022-12-09T09:21:36.845Z,2.20
2022-12-09T09:24:10.290Z,2.20
2022-12-09T09:26:40.744Z,2.20
2022-12-09T09:29:08.555Z,2.30
2022-12-09T09:31:35.993Z,2.30
2022-12-09T09:34:03.335Z,2.40
2022-12-09T09:36:31.478Z,2.40
2022-12-09T09:38:58.889Z,2.40
2022-12-09T09:41:41.866Z,2.40
2022-12-09T09:44:31.748Z,2.40
2022-12-09T09:47:01.208Z,2.50
2022-12-09T09:49:42.901Z,2.50
2022-12-09T09:52:16.970Z,2.60
2022-12-09T09:54:44.312Z,2.60
2022-12-09T09:57:27.645Z,2.60
2022-12-09T10:00:14.897Z,2.60
2022-12-09T10:03:25.629Z,2.60
2022-12-09T10:05:56.151Z,2.60
2022-12-09T10:08:27.081Z,2.60
2022-12-09T10:11:12.167Z,2.70
2022-12-09T10:13:51.701Z,2.70
2022-12-09T10:16:28.865Z,2.80
2022-12-09T10:19:21.559Z,2.90
2022-12-09T10:21:51.319Z,3.00
2022-12-09T10:24:37.307Z,3.00
2022-12-09T10:27:22.529Z,3.00
2022-12-09T10:30:02.804Z,3.10
2022-12-09T10:32:33.551Z,3.10
2022-12-09T10:35:01.422Z,3.10
2022-12-09T10:37:32.414Z,3.10
2022-12-09T10:40:12.475Z,3.20
2022-12-09T10:43:11.172Z,3.20
2022-12-09T10:46:16.690Z,3.30
2022-12-09T10:48:43.198Z,3.40
2022-12-09T10:51:23.876Z,3.40
2022-12-09T10:54:00.859Z,3.40
2022-12-09T10:56:35.024Z,3.40
2022-12-09T10:59:29.852Z,3.40
2022-12-09T11:02:09.103Z,3.60
2022-12-09T11:04:37.488Z,3.70
2022-12-09T11:07:13.578Z,3.80
2022-12-09T11:10:02.991Z,3.80
2022-12-09T11:12:41.294Z,3.80
2022-12-09T11:15:36.058Z,3.70
2022-12-09T11:18:07.334Z,3.70
2022-12-09T11:20:35.982Z,3.70
2022-12-09T11:23:22.247Z,3.70
2022-12-09T11:25:55.059Z,3.80
2022-12-09T11:28:24.641Z,3.80
2022-12-09T11:33:59.434Z,3.80
2022-12-09T11:36:42.136Z,3.70
2022-12-09T11:39:26.748Z,3.80
2022-12-09T11:42:18.468Z,3.80
2022-12-09T11:45:04.513Z,3.70
2022-12-09T11:50:31.913Z,3.70
2022-12-09T11:53:07.683Z,3.60
2022-12-09T11:55:37.607Z,3.50
2022-12-09T11:58:10.079Z,3.50
2022-12-09T12:00:45.680Z,3.40
2022-12-09T12:03:38.076Z,3.30
2022-12-09T12:06:12.152Z,3.30
2022-12-09T12:08:45.339Z,3.40
2022-12-09T12:11:17.124Z,3.40
2022-12-09T12:13:48.652Z,3.40
2022-12-09T12:16:53.684Z,3.50
2022-12-09T12:19:40.181Z,3.50
2022-12-09T12:22:25.664Z,3.50
2022-12-09T12:25:20.245Z,3.50
2022-12-09T12:27:56.200Z,3.50
2022-12-09T12:30:41.192Z,3.50
2022-12-09T12:34:00.351Z,3.40
2022-12-09T12:36:26.641Z,3.30
2022-12-09T12:39:18.369Z,3.30
2022-12-09T12:42:04.636Z,3.30
2022-12-09T12:45:29.739Z,3.40
2022-12-09T12:48:37.623Z,3.40
2022-12-09T12:51:28.330Z,3.40
2022-12-09T12:54:08.637Z,3.40
2022-12-09T12:56:57.166Z,3.30
2022-12-09T12:59:40.559Z,3.30
2022-12-09T13:02:39.990Z,3.40
2022-12-09T13:05:22.358Z,3.40
2022-12-09T13:08:06.026Z,3.30
2022-12-09T13:10:43.659Z,3.20
2022-12-09T13:13:25.739Z,3.10
2022-12-09T13:15:55.628Z,3.10
2022-12-09T13:18:27.167Z,3.00
2022-12-09T13:20:59.121Z,3.00
2022-12-09T13:23:33.124Z,3.00
2022-12-09T13:26:27.415Z,2.90
2022-12-09T13:29:22.283Z,2.90
2022-12-09T13:32:03.798Z,2.90
2022-12-09T13:34:41.684Z,2.80
2022-12-09T13:37:30.141Z,2.80
2022-12-09T13:39:58.819Z,2.90
2022-12-09T13:42:46.899Z,2.90
2022-12-09T13:45:32.651Z,2.80
2022-12-09T13:48:16.597Z,2.80
2022-12-09T13:50:56.280Z,2.80
2022-12-09T13:53:34.843Z,2.70
2022-12-09T13:56:17.315Z,2.70
2022-12-09T13:59:17.309Z,2.60
2022-12-09T14:01:54.679Z,2.50
2022-12-09T14:04:26.693Z,2.40
2022-12-09T14:07:00.541Z,2.40
2022-12-09T14:09:39.469Z,2.40
2022-12-09T14:12:13.561Z,2.30
2022-12-09T14:14:49.280Z,2.20
2022-12-09T14:17:18.946Z,2.20
2022-12-09T14:19:48.709Z,2.10
2022-12-09T14:22:19.038Z,2.10
2022-12-09T14:24:49.695Z,2.00
2022-12-09T14:27:20.835Z,1.90
2022-12-09T14:29:49.379Z,1.90
2022-12-09T14:32:26.170Z,1.80
2022-12-09T14:35:12.009Z,1.70
2022-12-09T14:37:54.409Z,1.70
2022-12-09T14:40:38.387Z,1.60
2022-12-09T14:43:21.196Z,1.60
2022-12-09T14:45:50.144Z,1.60
2022-12-09T14:48:23.790Z,1.60
2022-12-09T14:51:07.225Z,1.60
2022-12-09T14:53:37.349Z,1.60
2022-12-09T14:56:05.728Z,1.50
2022-12-09T14:58:32.661Z,1.50
2022-12-09T15:01:06.092Z,1.60
2022-12-09T15:03:36.784Z,1.70
2022-12-09T15:06:18.384Z,1.70
2022-12-09T15:08:45.661Z,1.80
2022-12-09T15:11:15.930Z,1.80
2022-12-09T15:13:45.022Z,1.80
2022-12-09T15:16:15.370Z,1.90
2022-12-09T15:18:43.626Z,1.90
2022-12-09T15:21:12.002Z,1.90
2022-12-09T15:23:41.066Z,1.90
2022-12-09T15:26:30.961Z,1.90
2022-12-09T15:29:04.924Z,1.90
2022-12-09T15:31:34.512Z,1.90
2022-12-09T15:34:11.407Z,1.90
2022-12-09T15:36:47.897Z,1.90
2022-12-09T15:39:37.967Z,1.90
2022-12-09T15:42:11.064Z,1.90
2022-12-09T15:44:47.487Z,1.90
2022-12-09T15:47:20.135Z,1.90
2022-12-09T15:49:53.681Z,1.90
2022-12-09T15:52:25.767Z,2.00
2022-12-09T15:54:52.903Z,1.90
2022-12-09T15:57:22.436Z,1.90
2022-12-09T15:59:56.102Z,2.00
2022-12-09T16:02:27.727Z,2.00
2022-12-09T16:04:57.976Z,2.00
2022-12-09T16:07:25.809Z,2.00
2022-12-09T16:10:04.387Z,2.00
2022-12-09T16:12:32.785Z,1.90
2022-12-09T16:14:59.708Z,1.90
2022-12-09T16:17:30.005Z,1.90
2022-12-09T16:19:56.945Z,1.90
2022-12-09T16:22:26.573Z,1.90
2022-12-09T16:25:22.721Z,1.90
2022-12-09T16:27:57.050Z,1.90
2022-12-09T16:30:25.873Z,1.80
2022-12-09T16:32:55.638Z,1.80
2022-12-09T16:35:40.774Z,1.80
2022-12-09T16:38:10.794Z,1.80
2022-12-09T16:40:46.415Z,1.80
2022-12-09T16:43:16.951Z,1.80
2022-12-09T16:45:45.919Z,1.80
2022-12-09T16:48:13.712Z,1.80
2022-12-09T16:51:09.661Z,1.80
2022-12-09T16:53:49.435Z,1.80
2022-12-09T16:56:28.155Z,1.80
2022-12-09T16:58:55.955Z,1.80
2022-12-09T17:01:26.461Z,1.80
2022-12-09T17:04:23.395Z,1.80
2022-12-09T17:06:50.040Z,1.70
2022-12-09T17:09:17.074Z,1.60
2022-12-09T17:11:48.588Z,1.50
2022-12-09T17:14:17.448Z,1.50
2022-12-09T17:16:44.323Z,1.40
2022-12-09T17:19:12.791Z,1.40
2022-12-09T17:21:39.453Z,1.20
2022-12-09T17:24:07.347Z,1.20
2022-12-09T17:26:33.908Z,1.10
2022-12-09T17:29:01.994Z,1.10
2022-12-09T17:31:29.332Z,1.10
2022-12-09T17:33:57.396Z,1.00
2022-12-09T17:36:24.101Z,1.00
2022-12-09T17:38:51.014Z,1.00
2022-12-09T17:41:20.756Z,0.90
2022-12-09T17:43:48.139Z,0.80
2022-12-09T17:46:15.839Z,0.70
2022-12-09T17:48:43.330Z,0.60
2022-12-09T17:51:16.293Z,0.60
2022-12-09T17:53:44.122Z,0.60
2022-12-09T17:56:14.420Z,0.50
2022-12-09T17:58:42.085Z,0.40
2022-12-09T18:01:20.713Z,0.40
2022-12-09T18:03:56.084Z,0.40
2022-12-09T18:06:27.692Z,0.40
2022-12-09T18:08:54.980Z,0.50
2022-12-09T18:11:22.393Z,0.50
2022-12-09T18:13:50.133Z,0.60
2022-12-09T18:16:17.344Z,0.70
2022-12-09T18:18:44.908Z,0.70
2022-12-09T18:21:15.563Z,0.80
2022-12-09T18:23:43.129Z,0.90
2022-12-09T18:26:12.014Z,0.90
2022-12-09T18:28:39.611Z,0.90
2022-12-09T18:31:18.871Z,1.00
2022-12-09T18:33:46.658Z,1.00
2022-12-09T18:36:15.800Z,1.00
2022-12-09T18:38:43.950Z,1.00
2022-12-09T18:41:12.485Z,1.00
2022-12-09T18:43:43.400Z,0.80
2022-12-09T18:46:14.075Z,0.80
2022-12-09T18:48:41.807Z,0.80
2022-12-09T18:51:20.367Z,0.80
2022-12-09T18:53:48.635Z,0.80
2022-12-09T18:56:16.923Z,0.80
2022-12-09T18:59:05.413Z,0.80
2022-12-09T19:01:32.320Z,0.70
2022-12-09T19:04:01.985Z,0.70
2022-12-09T19:06:30.296Z,0.60
2022-12-09T19:09:03.394Z,0.60
2022-12-09T19:11:33.024Z,0.50
2022-12-09T19:14:00.389Z,0.50
2022-12-09T19:16:28.729Z,0.40
2022-12-09T19:18:56.081Z,0.40
2022-12-09T19:21:24.397Z,0.40
2022-12-09T19:23:51.814Z,0.40
2022-12-09T19:26:28.684Z,0.40
2022-12-09T19:28:58.210Z,0.40
2022-12-09T19:31:27.958Z,0.50
2022-12-09T19:34:15.821Z,0.50
2022-12-09T19:36:44.093Z,0.50
2022-12-09T19:39:12.298Z,0.40
2022-12-09T19:41:40.666Z,0.50
2022-12-09T19:44:08.421Z,0.40
2022-12-09T19:46:35.193Z,0.30
2022-12-09T19:49:02.862Z,0.30
2022-12-09T19:51:30.215Z,0.30
2022-12-09T19:53:58.796Z,0.20
2022-12-09T19:56:26.158Z,0.20
2022-12-09T19:58:53.799Z,0.20
2022-12-09T20:01:29.767Z,0.10
2022-12-09T20:04:25.447Z,0.10
2022-12-09T20:06:53.342Z,0.00
2022-12-09T20:09:24.158Z,-0.10
2022-12-09T20:11:53.147Z,-0.10
2022-12-09T20:14:20.004Z,-0.10
2022-12-09T20:16:47.009Z,-0.20
2022-12-09T20:19:13.655Z,-0.20
2022-12-09T20:21:41.243Z,-0.20
2022-12-09T20:24:08.610Z,-0.30
2022-12-09T20:26:37.595Z,-0.30
2022-12-09T20:29:07.392Z,-0.40
2022-12-09T20:31:37.649Z,-0.40
2022-12-09T20:34:07.239Z,-0.50
2022-12-09T20:36:36.325Z,-0.50
2022-12-09T20:39:06.273Z,-0.50
2022-12-09T20:41:33.567Z,-0.50
2022-12-09T20:44:00.436Z,-0.50
2022-12-09T20:46:30.728Z,-0.50
2022-12-09T20:48:58.751Z,-0.60
2022-12-09T20:51:28.681Z,-0.60
2022-12-09T20:53:56.717Z,-0.70
2022-12-09T20:56:25.606Z,-0.80
2022-12-09T20:58:53.700Z,-0.70
2022-12-09T21:01:26.640Z,-0.80
2022-12-09T21:03:55.024Z,-0.80
2022-12-09T21:06:26.041Z,-0.80
2022-12-09T21:08:53.688Z,-0.80
2022-12-09T21:11:23.388Z,-0.80
2022-12-09T21:13:52.489Z,-0.90
2022-12-09T21:16:25.313Z,-0.90
2022-12-09T21:18:57.390Z,-0.90
2022-12-09T21:21:26.145Z,-0.90
2022-12-09T21:23:54.253Z,-0.90
2022-12-09T21:26:23.334Z,-0.90
2022-12-09T21:28:51.108Z,-0.90
2022-12-09T21:31:24.128Z,-0.80
2022-12-09T21:33:52.763Z,-0.80
2022-12-09T21:36:23.630Z,-0.70
2022-12-09T21:38:50.717Z,-0.70
2022-12-09T21:41:19.666Z,-0.60
2022-12-09T21:43:47.411Z,-0.60
2022-12-09T21:46:19.828Z,-0.50
2022-12-09T21:48:51.994Z,-0.50
2022-12-09T21:51:20.168Z,-0.50
2022-12-09T21:53:47.883Z,-0.40
2022-12-09T21:56:27.496Z,-0.40
2022-12-09T21:58:56.100Z,-0.40
2022-12-09T22:01:27.662Z,-0.40
2022-12-09T22:03:55.807Z,-0.40
2022-12-09T22:06:23.280Z,-0.40
2022-12-09T22:08:50.521Z,-0.40
2022-12-09T22:11:20.537Z,-0.50
2022-12-09T22:13:47.185Z,-0.50
2022-12-09T22:16:20.171Z,-0.60
2022-12-09T22:18:47.889Z,-0.70
2022-12-09T22:21:28.099Z,-0.80
2022-12-09T22:24:02.859Z,-0.90
2022-12-09T22:26:30.812Z,-0.90
2022-12-09T22:29:00.694Z,-1.00
2022-12-09T22:31:31.060Z,-1.10
2022-12-09T22:34:04.785Z,-1.20
2022-12-09T22:36:33.245Z,-1.30
2022-12-09T22:39:00.153Z,-1.40
2022-12-09T22:41:30.025Z,-1.40
2022-12-09T22:43:57.217Z,-1.50
2022-12-09T22:46:27.465Z,-1.50
2022-12-09T22:48:54.876Z,-1.60
2022-12-09T22:51:27.894Z,-1.60
2022-12-09T22:53:56.185Z,-1.70
2022-12-09T22:56:25.429Z,-1.70
2022-12-09T22:58:52.148Z,-1.70
2022-12-09T23:01:29.963Z,-1.80
2022-12-09T23:03:57.917Z,-1.80
2022-12-09T23:06:26.464Z,-1.90
2022-12-09T23:08:53.844Z,-1.90
2022-12-09T23:11:24.808Z,-1.90
2022-12-09T23:13:52.825Z,-2.00
2022-12-09T23:16:22.599Z,-2.00
2022-12-09T23:18:51.110Z,-2.00
2022-12-09T23:21:24.880Z,-2.10
2022-12-09T23:23:53.804Z,-2.10
2022-12-09T23:26:23.047Z,-2.10
2022-12-09T23:28:51.197Z,-2.10
2022-12-09T23:31:20.867Z,-2.10
2022-12-09T23:33:49.066Z,-2.10
2022-12-09T23:36:19.212Z,-2.20
2022-12-09T23:38:48.119Z,-2.20
2022-12-09T23:41:17.747Z,-2.30
2022-12-09T23:43:45.712Z,-2.30
2022-12-09T23:46:16.529Z,-2.30
2022-12-09T23:48:44.186Z,-2.30
2022-12-09T23:51:22.919Z,-2.30
2022-12-09T23:53:50.909Z,-2.30
2022-12-09T23:56:20.922Z,-2.30
2022-12-09T23:58:48.341Z,-2.30
